sensor_id;sensor_type;location;lat;lon;timestamp;P1;durP1;ratioP1;P2;durP2;ratioP2
10557;SDS011;5327;47.238;-2.304;2022-10-18T00:01:05;25.43;;;10.37;;
10557;SDS011;5327;47.238;-2.304;2022-10-18T00:03:32;20.40;;;9.40;;
10557;SDS011;5327;47.238;-2.304;2022-10-18T00:05:59;16.53;;;9.13;;
10557;SDS011;5327;47.238;-2.304;2022-10-18T00:08:25;19.57;;;10.00;;
10557;SDS011;5327;47.238;-2.304;2022-10-18T00:10:51;20.03;;;10.77;;
10557;SDS011;5327;47.238;-2.304;2022-10-18T00:13:18;25.70;;;12.20;;
10557;SDS011;5327;47.238;-2.304;2022-10-18T00:16:03;12.27;;;8.90;;
10557;SDS011;5327;47.238;-2.304;2022-10-18T00:18:29;24.93;;;11.57;;
10557;SDS011;5327;47.238;-2.304;2022-10-18T00:20:59;21.13;;;11.47;;
10557;SDS011;5327;47.238;-2.304;2022-10-18T00:23:26;23.77;;;13.03;;
10557;SDS011;5327;47.238;-2.304;2022-10-18T00:28:28;25.27;;;11.30;;
10557;SDS011;5327;47.238;-2.304;2022-10-18T00:30:54;24.50;;;12.70;;
10557;SDS011;5327;47.238;-2.304;2022-10-18T00:33:20;22.87;;;12.37;;
10557;SDS011;5327;47.238;-2.304;2022-10-18T00:35:46;18.17;;;12.10;;
10557;SDS011;5327;47.238;-2.304;2022-10-18T00:38:12;18.67;;;10.60;;
10557;SDS011;5327;47.238;-2.304;2022-10-18T00:40:38;21.43;;;12.23;;
10557;SDS011;5327;47.238;-2.304;2022-10-18T00:43:04;22.30;;;12.87;;
10557;SDS011;5327;47.238;-2.304;2022-10-18T00:45:30;24.63;;;12.30;;
10557;SDS011;5327;47.238;-2.304;2022-10-18T00:48:00;21.33;;;12.70;;
10557;SDS011;5327;47.238;-2.304;2022-10-18T00:50:28;25.53;;;12.50;;
10557;SDS011;5327;47.238;-2.304;2022-10-18T00:52:56;24.20;;;12.07;;
10557;SDS011;5327;47.238;-2.304;2022-10-18T00:55:23;24.13;;;12.27;;
10557;SDS011;5327;47.238;-2.304;2022-10-18T00:57:49;24.57;;;13.30;;
10557;SDS011;5327;47.238;-2.304;2022-10-18T01:00:16;30.87;;;11.83;;
10557;SDS011;5327;47.238;-2.304;2022-10-18T01:02:43;30.93;;;12.63;;
10557;SDS011;5327;47.238;-2.304;2022-10-18T01:05:10;22.27;;;12.97;;
10557;SDS011;5327;47.238;-2.304;2022-10-18T01:07:41;22.43;;;12.53;;
10557;SDS011;5327;47.238;-2.304;2022-10-18T01:15:26;31.00;;;15.90;;
10557;SDS011;5327;47.238;-2.304;2022-10-18T01:18:11;30.83;;;16.30;;
10557;SDS011;5327;47.238;-2.304;2022-10-18T01:31:10;30.70;;;15.83;;
10557;SDS011;5327;47.238;-2.304;2022-10-18T01:33:46;32.70;;;16.10;;
10557;SDS011;5327;47.238;-2.304;2022-10-18T01:38:47;33.97;;;17.50;;
10557;SDS011;5327;47.238;-2.304;2022-10-18T01:41:15;33.93;;;19.10;;
10557;SDS011;5327;47.238;-2.304;2022-10-18T01:43:44;39.30;;;19.60;;
10557;SDS011;5327;47.238;-2.304;2022-10-18T01:46:13;30.03;;;17.90;;
10557;SDS011;5327;47.238;-2.304;2022-10-18T01:48:40;35.70;;;20.77;;
10557;SDS011;5327;47.238;-2.304;2022-10-18T01:51:07;43.03;;;19.50;;
10557;SDS011;5327;47.238;-2.304;2022-10-18T01:53:33;43.40;;;21.73;;
10557;SDS011;5327;47.238;-2.304;2022-10-18T01:56:19;53.10;;;23.10;;
10557;SDS011;5327;47.238;-2.304;2022-10-18T02:01:50;59.90;;;26.07;;
10557;SDS011;5327;47.238;-2.304;2022-10-18T02:06:45;54.60;;;25.60;;
10557;SDS011;5327;47.238;-2.304;2022-10-18T02:09:27;63.67;;;26.17;;
10557;SDS011;5327;47.238;-2.304;2022-10-18T02:11:54;76.67;;;31.33;;
10557;SDS011;5327;47.238;-2.304;2022-10-18T02:14:22;69.07;;;30.17;;
10557;SDS011;5327;47.238;-2.304;2022-10-18T02:16:50;80.70;;;30.50;;
10557;SDS011;5327;47.238;-2.304;2022-10-18T02:19:32;69.50;;;30.37;;
10557;SDS011;5327;47.238;-2.304;2022-10-18T02:22:00;80.23;;;31.23;;
10557;SDS011;5327;47.238;-2.304;2022-10-18T02:24:30;70.17;;;29.00;;
10557;SDS011;5327;47.238;-2.304;2022-10-18T02:26:57;81.67;;;32.30;;
10557;SDS011;5327;47.238;-2.304;2022-10-18T02:29:23;90.93;;;33.50;;
10557;SDS011;5327;47.238;-2.304;2022-10-18T02:31:49;78.23;;;30.50;;
10557;SDS011;5327;47.238;-2.304;2022-10-18T02:34:28;74.23;;;29.73;;
10557;SDS011;5327;47.238;-2.304;2022-10-18T02:36:56;72.07;;;29.50;;
10557;SDS011;5327;47.238;-2.304;2022-10-18T02:39:27;71.33;;;33.37;;
10557;SDS011;5327;47.238;-2.304;2022-10-18T02:41:54;71.23;;;32.40;;
10557;SDS011;5327;47.238;-2.304;2022-10-18T02:44:20;80.07;;;33.07;;
10557;SDS011;5327;47.238;-2.304;2022-10-18T02:46:46;79.67;;;35.50;;
10557;SDS011;5327;47.238;-2.304;2022-10-18T02:49:12;89.80;;;36.83;;
10557;SDS011;5327;47.238;-2.304;2022-10-18T02:51:38;84.97;;;36.07;;
10557;SDS011;5327;47.238;-2.304;2022-10-18T02:54:04;78.50;;;35.77;;
10557;SDS011;5327;47.238;-2.304;2022-10-18T02:56:32;75.30;;;35.00;;
10557;SDS011;5327;47.238;-2.304;2022-10-18T02:58:58;72.60;;;33.47;;
10557;SDS011;5327;47.238;-2.304;2022-10-18T03:01:24;117.90;;;45.30;;
10557;SDS011;5327;47.238;-2.304;2022-10-18T03:03:50;138.07;;;47.70;;
10557;SDS011;5327;47.238;-2.304;2022-10-18T03:06:16;136.83;;;49.37;;
10557;SDS011;5327;47.238;-2.304;2022-10-18T03:08:42;114.43;;;44.37;;
10557;SDS011;5327;47.238;-2.304;2022-10-18T03:11:08;98.53;;;42.53;;
10557;SDS011;5327;47.238;-2.304;2022-10-18T03:13:34;96.93;;;31.13;;
10557;SDS011;5327;47.238;-2.304;2022-10-18T03:16:01;92.40;;;27.93;;
10557;SDS011;5327;47.238;-2.304;2022-10-18T03:18:27;76.93;;;29.77;;
10557;SDS011;5327;47.238;-2.304;2022-10-18T03:20:53;154.30;;;30.17;;
10557;SDS011;5327;47.238;-2.304;2022-10-18T03:23:19;73.03;;;22.00;;
10557;SDS011;5327;47.238;-2.304;2022-10-18T03:25:45;80.60;;;22.47;;
10557;SDS011;5327;47.238;-2.304;2022-10-18T03:28:11;69.20;;;20.27;;
10557;SDS011;5327;47.238;-2.304;2022-10-18T03:30:37;89.50;;;16.17;;
10557;SDS011;5327;47.238;-2.304;2022-10-18T03:33:04;49.33;;;17.10;;
10557;SDS011;5327;47.238;-2.304;2022-10-18T03:35:30;88.77;;;14.23;;
10557;SDS011;5327;47.238;-2.304;2022-10-18T03:37:56;86.80;;;16.10;;
10557;SDS011;5327;47.238;-2.304;2022-10-18T03:40:22;65.77;;;17.37;;
10557;SDS011;5327;47.238;-2.304;2022-10-18T03:42:48;37.77;;;15.80;;
10557;SDS011;5327;47.238;-2.304;2022-10-18T03:45:14;67.07;;;18.47;;
10557;SDS011;5327;47.238;-2.304;2022-10-18T03:47:40;42.33;;;16.93;;
10557;SDS011;5327;47.238;-2.304;2022-10-18T03:50:06;65.13;;;15.80;;
10557;SDS011;5327;47.238;-2.304;2022-10-18T03:52:32;54.63;;;12.57;;
10557;SDS011;5327;47.238;-2.304;2022-10-18T03:54:58;53.17;;;17.20;;
10557;SDS011;5327;47.238;-2.304;2022-10-18T03:57:24;59.77;;;15.10;;
10557;SDS011;5327;47.238;-2.304;2022-10-18T03:59:50;80.83;;;18.43;;
10557;SDS011;5327;47.238;-2.304;2022-10-18T04:02:16;58.50;;;17.67;;
10557;SDS011;5327;47.238;-2.304;2022-10-18T04:04:42;74.87;;;20.60;;
10557;SDS011;5327;47.238;-2.304;2022-10-18T04:07:08;42.90;;;17.47;;
10557;SDS011;5327;47.238;-2.304;2022-10-18T04:09:34;61.07;;;19.20;;
10557;SDS011;5327;47.238;-2.304;2022-10-18T04:12:00;59.40;;;19.03;;
10557;SDS011;5327;47.238;-2.304;2022-10-18T04:14:26;59.17;;;18.60;;
10557;SDS011;5327;47.238;-2.304;2022-10-18T04:16:52;80.87;;;18.50;;
10557;SDS011;5327;47.238;-2.304;2022-10-18T04:19:18;58.03;;;17.40;;
10557;SDS011;5327;47.238;-2.304;2022-10-18T04:21:44;41.67;;;14.20;;
10557;SDS011;5327;47.238;-2.304;2022-10-18T04:24:10;66.07;;;19.30;;
10557;SDS011;5327;47.238;-2.304;2022-10-18T04:26:36;47.80;;;21.07;;
10557;SDS011;5327;47.238;-2.304;2022-10-18T04:29:02;56.03;;;18.70;;
10557;SDS011;5327;47.238;-2.304;2022-10-18T04:31:28;43.13;;;19.37;;
10557;SDS011;5327;47.238;-2.304;2022-10-18T04:33:54;41.73;;;19.97;;
10557;SDS011;5327;47.238;-2.304;2022-10-18T04:36:20;41.53;;;19.17;;
10557;SDS011;5327;47.238;-2.304;2022-10-18T04:38:46;42.17;;;18.17;;
10557;SDS011;5327;47.238;-2.304;2022-10-18T04:41:12;39.17;;;17.57;;
10557;SDS011;5327;47.238;-2.304;2022-10-18T04:43:38;31.37;;;17.53;;
10557;SDS011;5327;47.238;-2.304;2022-10-18T04:46:04;44.23;;;18.07;;
10557;SDS011;5327;47.238;-2.304;2022-10-18T04:48:30;32.73;;;18.20;;
10557;SDS011;5327;47.238;-2.304;2022-10-18T04:50:56;37.03;;;17.73;;
10557;SDS011;5327;47.238;-2.304;2022-10-18T04:53:22;30.23;;;16.43;;
10557;SDS011;5327;47.238;-2.304;2022-10-18T04:55:49;40.70;;;18.70;;
10557;SDS011;5327;47.238;-2.304;2022-10-18T04:58:16;32.87;;;18.60;;
10557;SDS011;5327;47.238;-2.304;2022-10-18T05:00:42;44.13;;;19.10;;
10557;SDS011;5327;47.238;-2.304;2022-10-18T05:03:08;27.23;;;14.90;;
10557;SDS011;5327;47.238;-2.304;2022-10-18T05:05:35;33.17;;;17.57;;
10557;SDS011;5327;47.238;-2.304;2022-10-18T05:08:01;29.37;;;17.77;;
10557;SDS011;5327;47.238;-2.304;2022-10-18T05:10:27;33.33;;;16.87;;
10557;SDS011;5327;47.238;-2.304;2022-10-18T05:12:53;45.70;;;15.07;;
10557;SDS011;5327;47.238;-2.304;2022-10-18T05:15:20;44.97;;;17.73;;
10557;SDS011;5327;47.238;-2.304;2022-10-18T05:17:46;43.93;;;17.17;;
10557;SDS011;5327;47.238;-2.304;2022-10-18T05:20:12;47.17;;;19.37;;
10557;SDS011;5327;47.238;-2.304;2022-10-18T05:22:38;57.97;;;17.53;;
10557;SDS011;5327;47.238;-2.304;2022-10-18T05:25:04;52.73;;;20.70;;
10557;SDS011;5327;47.238;-2.304;2022-10-18T05:27:30;33.77;;;19.70;;
10557;SDS011;5327;47.238;-2.304;2022-10-18T05:29:56;42.27;;;21.03;;
10557;SDS011;5327;47.238;-2.304;2022-10-18T05:32:22;37.50;;;18.40;;
10557;SDS011;5327;47.238;-2.304;2022-10-18T05:34:48;67.13;;;25.10;;
10557;SDS011;5327;47.238;-2.304;2022-10-18T05:37:14;42.60;;;20.43;;
10557;SDS011;5327;47.238;-2.304;2022-10-18T05:39:40;75.63;;;23.10;;
10557;SDS011;5327;47.238;-2.304;2022-10-18T05:42:06;78.40;;;23.97;;
10557;SDS011;5327;47.238;-2.304;2022-10-18T05:44:32;76.17;;;22.40;;
10557;SDS011;5327;47.238;-2.304;2022-10-18T05:46:59;52.27;;;21.80;;
10557;SDS011;5327;47.238;-2.304;2022-10-18T05:49:25;46.67;;;22.73;;
10557;SDS011;5327;47.238;-2.304;2022-10-18T05:51:51;147.70;;;25.40;;
10557;SDS011;5327;47.238;-2.304;2022-10-18T05:54:17;84.40;;;24.53;;
10557;SDS011;5327;47.238;-2.304;2022-10-18T05:56:43;46.70;;;24.80;;
10557;SDS011;5327;47.238;-2.304;2022-10-18T05:59:09;52.73;;;25.90;;
10557;SDS011;5327;47.238;-2.304;2022-10-18T06:01:39;55.40;;;24.10;;
10557;SDS011;5327;47.238;-2.304;2022-10-18T06:04:05;86.20;;;25.53;;
10557;SDS011;5327;47.238;-2.304;2022-10-18T06:06:31;87.93;;;27.23;;
10557;SDS011;5327;47.238;-2.304;2022-10-18T06:08:58;87.13;;;24.10;;
10557;SDS011;5327;47.238;-2.304;2022-10-18T06:11:24;72.23;;;24.43;;
10557;SDS011;5327;47.238;-2.304;2022-10-18T06:13:51;71.93;;;26.10;;
10557;SDS011;5327;47.238;-2.304;2022-10-18T06:16:18;82.50;;;24.60;;
10557;SDS011;5327;47.238;-2.304;2022-10-18T06:18:48;60.67;;;22.53;;
10557;SDS011;5327;47.238;-2.304;2022-10-18T06:21:14;71.90;;;24.60;;
10557;SDS011;5327;47.238;-2.304;2022-10-18T06:23:41;96.83;;;22.57;;
10557;SDS011;5327;47.238;-2.304;2022-10-18T06:26:08;150.37;;;39.83;;
10557;SDS011;5327;47.238;-2.304;2022-10-18T06:28:35;153.20;;;25.20;;
10557;SDS011;5327;47.238;-2.304;2022-10-18T06:31:01;80.67;;;24.10;;
10557;SDS011;5327;47.238;-2.304;2022-10-18T06:33:29;86.87;;;19.47;;
10557;SDS011;5327;47.238;-2.304;2022-10-18T06:36:02;71.20;;;21.73;;
10557;SDS011;5327;47.238;-2.304;2022-10-18T06:38:29;144.97;;;29.93;;
10557;SDS011;5327;47.238;-2.304;2022-10-18T06:40:59;110.83;;;21.83;;
10557;SDS011;5327;47.238;-2.304;2022-10-18T06:43:25;61.30;;;19.77;;
10557;SDS011;5327;47.238;-2.304;2022-10-18T06:45:52;91.90;;;21.73;;
10557;SDS011;5327;47.238;-2.304;2022-10-18T06:48:18;71.77;;;23.00;;
10557;SDS011;5327;47.238;-2.304;2022-10-18T06:50:51;99.53;;;23.00;;
10557;SDS011;5327;47.238;-2.304;2022-10-18T06:53:17;86.57;;;19.60;;
10557;SDS011;5327;47.238;-2.304;2022-10-18T06:55:43;47.40;;;21.53;;
10557;SDS011;5327;47.238;-2.304;2022-10-18T06:58:10;79.60;;;22.80;;
10557;SDS011;5327;47.238;-2.304;2022-10-18T07:00:36;112.70;;;20.20;;
10557;SDS011;5327;47.238;-2.304;2022-10-18T07:03:03;53.43;;;21.60;;
10557;SDS011;5327;47.238;-2.304;2022-10-18T07:05:30;89.60;;;21.30;;
10557;SDS011;5327;47.238;-2.304;2022-10-18T07:07:56;52.70;;;20.00;;
10557;SDS011;5327;47.238;-2.304;2022-10-18T07:10:24;66.37;;;18.33;;
10557;SDS011;5327;47.238;-2.304;2022-10-18T07:12:50;55.30;;;18.17;;
10557;SDS011;5327;47.238;-2.304;2022-10-18T07:15:16;42.80;;;18.17;;
10557;SDS011;5327;47.238;-2.304;2022-10-18T07:17:45;91.20;;;20.90;;
10557;SDS011;5327;47.238;-2.304;2022-10-18T07:20:15;45.23;;;16.50;;
10557;SDS011;5327;47.238;-2.304;2022-10-18T07:22:41;38.00;;;16.80;;
10557;SDS011;5327;47.238;-2.304;2022-10-18T07:25:07;42.83;;;17.53;;
10557;SDS011;5327;47.238;-2.304;2022-10-18T07:27:37;50.40;;;16.60;;
10557;SDS011;5327;47.238;-2.304;2022-10-18T07:30:04;32.90;;;16.20;;
10557;SDS011;5327;47.238;-2.304;2022-10-18T07:32:30;40.13;;;16.43;;
10557;SDS011;5327;47.238;-2.304;2022-10-18T07:34:56;52.97;;;18.60;;
10557;SDS011;5327;47.238;-2.304;2022-10-18T07:37:22;50.80;;;17.40;;
10557;SDS011;5327;47.238;-2.304;2022-10-18T07:39:48;31.07;;;16.30;;
10557;SDS011;5327;47.238;-2.304;2022-10-18T07:42:14;37.30;;;17.87;;
10557;SDS011;5327;47.238;-2.304;2022-10-18T07:44:41;42.83;;;17.90;;
10557;SDS011;5327;47.238;-2.304;2022-10-18T07:47:07;29.30;;;13.07;;
10557;SDS011;5327;47.238;-2.304;2022-10-18T07:49:33;47.27;;;17.67;;
10557;SDS011;5327;47.238;-2.304;2022-10-18T07:51:59;39.80;;;19.30;;
10557;SDS011;5327;47.238;-2.304;2022-10-18T07:54:25;33.77;;;17.10;;
10557;SDS011;5327;47.238;-2.304;2022-10-18T07:56:51;37.50;;;19.50;;
10557;SDS011;5327;47.238;-2.304;2022-10-18T07:59:17;39.17;;;19.10;;
10557;SDS011;5327;47.238;-2.304;2022-10-18T08:01:43;29.20;;;16.47;;
10557;SDS011;5327;47.238;-2.304;2022-10-18T08:04:09;38.03;;;19.57;;
10557;SDS011;5327;47.238;-2.304;2022-10-18T08:06:35;30.87;;;14.77;;
10557;SDS011;5327;47.238;-2.304;2022-10-18T08:09:01;36.33;;;17.90;;
10557;SDS011;5327;47.238;-2.304;2022-10-18T08:11:27;39.70;;;19.40;;
10557;SDS011;5327;47.238;-2.304;2022-10-18T08:13:53;36.07;;;18.63;;
10557;SDS011;5327;47.238;-2.304;2022-10-18T08:16:21;35.60;;;17.60;;
10557;SDS011;5327;47.238;-2.304;2022-10-18T08:18:47;39.93;;;21.37;;
10557;SDS011;5327;47.238;-2.304;2022-10-18T08:21:13;33.23;;;16.87;;
10557;SDS011;5327;47.238;-2.304;2022-10-18T08:23:40;36.93;;;19.50;;
10557;SDS011;5327;47.238;-2.304;2022-10-18T08:26:08;44.93;;;21.30;;
10557;SDS011;5327;47.238;-2.304;2022-10-18T08:28:34;36.60;;;17.57;;
10557;SDS011;5327;47.238;-2.304;2022-10-18T08:31:10;31.97;;;17.90;;
10557;SDS011;5327;47.238;-2.304;2022-10-18T08:33:36;34.53;;;18.40;;
10557;SDS011;5327;47.238;-2.304;2022-10-18T08:36:04;30.40;;;17.60;;
10557;SDS011;5327;47.238;-2.304;2022-10-18T08:38:31;28.83;;;14.87;;
10557;SDS011;5327;47.238;-2.304;2022-10-18T08:43:46;33.60;;;19.80;;
10557;SDS011;5327;47.238;-2.304;2022-10-18T08:46:15;36.43;;;19.17;;
10557;SDS011;5327;47.238;-2.304;2022-10-18T08:48:42;33.27;;;17.53;;
10557;SDS011;5327;47.238;-2.304;2022-10-18T08:51:20;33.50;;;19.27;;
10557;SDS011;5327;47.238;-2.304;2022-10-18T08:53:50;33.03;;;19.50;;
10557;SDS011;5327;47.238;-2.304;2022-10-18T08:56:19;31.37;;;18.67;;
10557;SDS011;5327;47.238;-2.304;2022-10-18T08:58:48;41.27;;;22.43;;
10557;SDS011;5327;47.238;-2.304;2022-10-18T09:06:21;37.07;;;24.60;;
10557;SDS011;5327;47.238;-2.304;2022-10-18T09:08:54;32.63;;;19.97;;
10557;SDS011;5327;47.238;-2.304;2022-10-18T09:11:30;33.83;;;20.07;;
10557;SDS011;5327;47.238;-2.304;2022-10-18T09:16:54;38.87;;;21.90;;
10557;SDS011;5327;47.238;-2.304;2022-10-18T09:24:55;42.40;;;21.33;;
10557;SDS011;5327;47.238;-2.304;2022-10-18T09:27:25;33.60;;;19.43;;
10557;SDS011;5327;47.238;-2.304;2022-10-18T09:30:03;30.77;;;15.97;;
10557;SDS011;5327;47.238;-2.304;2022-10-18T09:38:03;40.77;;;21.27;;
10557;SDS011;5327;47.238;-2.304;2022-10-18T09:40:31;34.40;;;18.73;;
10557;SDS011;5327;47.238;-2.304;2022-10-18T09:43:05;37.13;;;19.20;;
10557;SDS011;5327;47.238;-2.304;2022-10-18T09:45:35;40.90;;;19.70;;
10557;SDS011;5327;47.238;-2.304;2022-10-18T09:50:40;30.50;;;18.23;;
10557;SDS011;5327;47.238;-2.304;2022-10-18T09:55:34;28.50;;;17.57;;
10557;SDS011;5327;47.238;-2.304;2022-10-18T09:58:04;35.47;;;19.70;;
10557;SDS011;5327;47.238;-2.304;2022-10-18T10:00:32;29.30;;;17.27;;
10557;SDS011;5327;47.238;-2.304;2022-10-18T10:02:59;33.93;;;19.50;;
10557;SDS011;5327;47.238;-2.304;2022-10-18T10:05:26;37.83;;;19.63;;
10557;SDS011;5327;47.238;-2.304;2022-10-18T10:07:56;29.07;;;16.67;;
10557;SDS011;5327;47.238;-2.304;2022-10-18T10:10:24;30.50;;;17.23;;
10557;SDS011;5327;47.238;-2.304;2022-10-18T10:15:35;29.47;;;16.97;;
10557;SDS011;5327;47.238;-2.304;2022-10-18T10:18:02;28.87;;;14.80;;
10557;SDS011;5327;47.238;-2.304;2022-10-18T10:22:55;23.70;;;14.67;;
10557;SDS011;5327;47.238;-2.304;2022-10-18T10:25:30;29.90;;;14.53;;
10557;SDS011;5327;47.238;-2.304;2022-10-18T10:28:11;17.70;;;11.83;;
10557;SDS011;5327;47.238;-2.304;2022-10-18T10:30:38;19.33;;;10.70;;
10557;SDS011;5327;47.238;-2.304;2022-10-18T10:33:04;22.43;;;12.87;;
10557;SDS011;5327;47.238;-2.304;2022-10-18T10:35:39;23.57;;;11.03;;
10557;SDS011;5327;47.238;-2.304;2022-10-18T10:38:06;18.40;;;9.37;;
10557;SDS011;5327;47.238;-2.304;2022-10-18T10:40:48;24.53;;;10.20;;
10557;SDS011;5327;47.238;-2.304;2022-10-18T10:43:17;17.73;;;9.50;;
10557;SDS011;5327;47.238;-2.304;2022-10-18T10:48:19;14.30;;;8.33;;
10557;SDS011;5327;47.238;-2.304;2022-10-18T10:50:50;16.30;;;8.40;;
10557;SDS011;5327;47.238;-2.304;2022-10-18T10:53:33;17.50;;;9.40;;
10557;SDS011;5327;47.238;-2.304;2022-10-18T10:56:00;19.77;;;9.23;;
10557;SDS011;5327;47.238;-2.304;2022-10-18T10:58:29;15.33;;;9.10;;
10557;SDS011;5327;47.238;-2.304;2022-10-18T11:00:58;17.73;;;8.43;;
10557;SDS011;5327;47.238;-2.304;2022-10-18T11:03:44;19.37;;;10.10;;
10557;SDS011;5327;47.238;-2.304;2022-10-18T11:06:15;20.43;;;9.93;;
10557;SDS011;5327;47.238;-2.304;2022-10-18T11:08:50;20.10;;;10.00;;
10557;SDS011;5327;47.238;-2.304;2022-10-18T11:11:36;20.87;;;9.30;;
10557;SDS011;5327;47.238;-2.304;2022-10-18T11:14:09;22.67;;;9.90;;
10557;SDS011;5327;47.238;-2.304;2022-10-18T11:16:41;22.53;;;10.13;;
10557;SDS011;5327;47.238;-2.304;2022-10-18T11:21:59;23.27;;;10.40;;
10557;SDS011;5327;47.238;-2.304;2022-10-18T11:24:27;20.10;;;10.60;;
10557;SDS011;5327;47.238;-2.304;2022-10-18T11:29:37;24.23;;;11.33;;
10557;SDS011;5327;47.238;-2.304;2022-10-18T11:42:26;14.53;;;9.20;;
10557;SDS011;5327;47.238;-2.304;2022-10-18T11:47:43;18.30;;;9.70;;
10557;SDS011;5327;47.238;-2.304;2022-10-18T12:03:01;20.00;;;8.63;;
10557;SDS011;5327;47.238;-2.304;2022-10-18T12:05:30;20.57;;;9.73;;
10557;SDS011;5327;47.238;-2.304;2022-10-18T12:08:17;16.77;;;9.17;;
10557;SDS011;5327;47.238;-2.304;2022-10-18T12:10:48;20.97;;;9.30;;
10557;SDS011;5327;47.238;-2.304;2022-10-18T12:13:17;17.00;;;8.73;;
10557;SDS011;5327;47.238;-2.304;2022-10-18T12:15:46;22.60;;;10.17;;
10557;SDS011;5327;47.238;-2.304;2022-10-18T12:18:16;24.40;;;10.53;;
10557;SDS011;5327;47.238;-2.304;2022-10-18T12:20:47;23.43;;;10.50;;
10557;SDS011;5327;47.238;-2.304;2022-10-18T12:23:35;21.37;;;10.40;;
10557;SDS011;5327;47.238;-2.304;2022-10-18T12:26:03;21.33;;;10.17;;
10557;SDS011;5327;47.238;-2.304;2022-10-18T12:28:36;20.97;;;9.80;;
10557;SDS011;5327;47.238;-2.304;2022-10-18T12:33:47;12.27;;;7.57;;
10557;SDS011;5327;47.238;-2.304;2022-10-18T12:36:18;17.90;;;9.13;;
10557;SDS011;5327;47.238;-2.304;2022-10-18T12:38:54;23.53;;;9.77;;
10557;SDS011;5327;47.238;-2.304;2022-10-18T12:41:25;21.63;;;9.23;;
10557;SDS011;5327;47.238;-2.304;2022-10-18T12:43:53;18.37;;;8.50;;
10557;SDS011;5327;47.238;-2.304;2022-10-18T12:46:19;20.97;;;9.83;;
10557;SDS011;5327;47.238;-2.304;2022-10-18T12:48:48;24.63;;;9.50;;
10557;SDS011;5327;47.238;-2.304;2022-10-18T12:51:21;16.83;;;7.90;;
10557;SDS011;5327;47.238;-2.304;2022-10-18T12:53:49;19.23;;;9.07;;
10557;SDS011;5327;47.238;-2.304;2022-10-18T13:09:25;21.00;;;9.20;;
10557;SDS011;5327;47.238;-2.304;2022-10-18T13:25:03;19.27;;;7.87;;
10557;SDS011;5327;47.238;-2.304;2022-10-18T13:27:51;17.90;;;8.37;;
10557;SDS011;5327;47.238;-2.304;2022-10-18T13:33:04;17.07;;;7.93;;
10557;SDS011;5327;47.238;-2.304;2022-10-18T13:38:03;20.50;;;9.03;;
10557;SDS011;5327;47.238;-2.304;2022-10-18T13:40:30;21.93;;;8.97;;
10557;SDS011;5327;47.238;-2.304;2022-10-18T13:42:56;22.40;;;9.23;;
10557;SDS011;5327;47.238;-2.304;2022-10-18T13:45:43;19.43;;;8.23;;
10557;SDS011;5327;47.238;-2.304;2022-10-18T13:50:55;20.83;;;9.23;;
10557;SDS011;5327;47.238;-2.304;2022-10-18T14:01:22;23.87;;;9.50;;
10557;SDS011;5327;47.238;-2.304;2022-10-18T14:04:07;15.87;;;8.63;;
10557;SDS011;5327;47.238;-2.304;2022-10-18T14:06:37;16.13;;;8.33;;
10557;SDS011;5327;47.238;-2.304;2022-10-18T14:09:15;15.77;;;7.47;;
10557;SDS011;5327;47.238;-2.304;2022-10-18T14:11:52;15.93;;;7.87;;
10557;SDS011;5327;47.238;-2.304;2022-10-18T14:14:29;19.20;;;9.03;;
10557;SDS011;5327;47.238;-2.304;2022-10-18T14:19:29;23.60;;;8.70;;
10557;SDS011;5327;47.238;-2.304;2022-10-18T14:22:03;20.50;;;9.30;;
10557;SDS011;5327;47.238;-2.304;2022-10-18T14:24:31;18.40;;;8.90;;
10557;SDS011;5327;47.238;-2.304;2022-10-18T14:27:20;19.23;;;9.30;;
10557;SDS011;5327;47.238;-2.304;2022-10-18T14:29:47;22.23;;;8.77;;
10557;SDS011;5327;47.238;-2.304;2022-10-18T14:32:26;24.33;;;9.00;;
10557;SDS011;5327;47.238;-2.304;2022-10-18T14:34:53;15.93;;;8.20;;
10557;SDS011;5327;47.238;-2.304;2022-10-18T14:37:22;30.23;;;11.80;;
10557;SDS011;5327;47.238;-2.304;2022-10-18T14:39:50;19.00;;;8.33;;
10557;SDS011;5327;47.238;-2.304;2022-10-18T14:42:20;19.63;;;9.37;;
10557;SDS011;5327;47.238;-2.304;2022-10-18T14:44:47;22.73;;;10.03;;
10557;SDS011;5327;47.238;-2.304;2022-10-18T14:47:15;20.40;;;10.80;;
10557;SDS011;5327;47.238;-2.304;2022-10-18T14:49:42;24.63;;;10.60;;
10557;SDS011;5327;47.238;-2.304;2022-10-18T14:52:09;17.07;;;9.47;;
10557;SDS011;5327;47.238;-2.304;2022-10-18T14:54:37;20.97;;;11.03;;
10557;SDS011;5327;47.238;-2.304;2022-10-18T14:57:03;19.30;;;9.90;;
10557;SDS011;5327;47.238;-2.304;2022-10-18T14:59:31;18.73;;;9.20;;
10557;SDS011;5327;47.238;-2.304;2022-10-18T15:05:07;18.53;;;9.80;;
10557;SDS011;5327;47.238;-2.304;2022-10-18T15:07:34;17.90;;;10.27;;
10557;SDS011;5327;47.238;-2.304;2022-10-18T15:10:00;25.13;;;10.20;;
10557;SDS011;5327;47.238;-2.304;2022-10-18T15:12:28;18.00;;;8.77;;
10557;SDS011;5327;47.238;-2.304;2022-10-18T15:14:55;19.70;;;8.60;;
10557;SDS011;5327;47.238;-2.304;2022-10-18T15:20:01;15.23;;;9.33;;
10557;SDS011;5327;47.238;-2.304;2022-10-18T15:22:29;16.17;;;8.50;;
10557;SDS011;5327;47.238;-2.304;2022-10-18T15:25:12;23.13;;;10.30;;
10557;SDS011;5327;47.238;-2.304;2022-10-18T15:27:39;17.77;;;9.83;;
10557;SDS011;5327;47.238;-2.304;2022-10-18T15:30:24;24.13;;;10.20;;
10557;SDS011;5327;47.238;-2.304;2022-10-18T15:32:56;16.27;;;9.23;;
10557;SDS011;5327;47.238;-2.304;2022-10-18T15:35:24;22.53;;;9.83;;
10557;SDS011;5327;47.238;-2.304;2022-10-18T15:37:50;18.27;;;9.90;;
10557;SDS011;5327;47.238;-2.304;2022-10-18T15:40:17;15.53;;;9.20;;
10557;SDS011;5327;47.238;-2.304;2022-10-18T15:42:43;22.63;;;9.33;;
10557;SDS011;5327;47.238;-2.304;2022-10-18T15:56:06;19.30;;;9.73;;
10557;SDS011;5327;47.238;-2.304;2022-10-18T16:01:17;21.40;;;10.00;;
10557;SDS011;5327;47.238;-2.304;2022-10-18T16:03:45;20.30;;;9.93;;
10557;SDS011;5327;47.238;-2.304;2022-10-18T16:06:11;19.50;;;9.80;;
10557;SDS011;5327;47.238;-2.304;2022-10-18T16:08:39;21.13;;;10.50;;
10557;SDS011;5327;47.238;-2.304;2022-10-18T16:11:06;24.47;;;10.77;;
10557;SDS011;5327;47.238;-2.304;2022-10-18T16:13:32;24.57;;;10.73;;
10557;SDS011;5327;47.238;-2.304;2022-10-18T16:15:58;22.10;;;10.47;;
10557;SDS011;5327;47.238;-2.304;2022-10-18T16:18:25;18.73;;;9.87;;
10557;SDS011;5327;47.238;-2.304;2022-10-18T16:20:51;19.13;;;10.00;;
10557;SDS011;5327;47.238;-2.304;2022-10-18T16:23:20;21.40;;;10.23;;
10557;SDS011;5327;47.238;-2.304;2022-10-18T16:25:47;20.63;;;11.17;;
10557;SDS011;5327;47.238;-2.304;2022-10-18T16:28:17;23.60;;;11.40;;
10557;SDS011;5327;47.238;-2.304;2022-10-18T16:30:45;19.20;;;11.00;;
10557;SDS011;5327;47.238;-2.304;2022-10-18T16:33:11;18.00;;;10.37;;
10557;SDS011;5327;47.238;-2.304;2022-10-18T16:35:37;20.00;;;10.30;;
10557;SDS011;5327;47.238;-2.304;2022-10-18T16:38:03;19.07;;;11.33;;
10557;SDS011;5327;47.238;-2.304;2022-10-18T16:40:29;16.53;;;9.80;;
10557;SDS011;5327;47.238;-2.304;2022-10-18T16:42:55;16.00;;;10.50;;
10557;SDS011;5327;47.238;-2.304;2022-10-18T16:45:21;19.87;;;11.47;;
10557;SDS011;5327;47.238;-2.304;2022-10-18T16:47:47;17.53;;;8.83;;
10557;SDS011;5327;47.238;-2.304;2022-10-18T16:50:15;20.53;;;10.60;;
10557;SDS011;5327;47.238;-2.304;2022-10-18T16:52:41;20.20;;;10.60;;
10557;SDS011;5327;47.238;-2.304;2022-10-18T16:55:07;26.30;;;13.17;;
10557;SDS011;5327;47.238;-2.304;2022-10-18T16:57:40;25.90;;;15.57;;
10557;SDS011;5327;47.238;-2.304;2022-10-18T17:00:07;27.70;;;14.77;;
10557;SDS011;5327;47.238;-2.304;2022-10-18T17:02:33;20.57;;;11.10;;
10557;SDS011;5327;47.238;-2.304;2022-10-18T17:04:59;20.80;;;11.77;;
10557;SDS011;5327;47.238;-2.304;2022-10-18T17:07:25;22.30;;;11.23;;
10557;SDS011;5327;47.238;-2.304;2022-10-18T17:09:51;19.57;;;10.70;;